Time;durP1;ratioP1;P1;durP2;ratioP2;P2;SDS_P1;SDS_P2;PMS_P1;PMS_P2;Temp;Humidity;BMP_temperature;BMP_pressure;BME280_temperature;BME280_humidity;BME280_pressure;Samples;Min_cycle;Max_cycle;Signal;HPM_P1;HPM_P2
2021/11/28 00:00:27;;;;;;;1.37;0.67;;;1.90;99.90;;;;;;5115687;28;20948;-57
2021/11/28 00:03:01;;;;;;;0.93;0.50;;;2.00;99.90;;;;;;5106786;28;20850;-58
2021/11/28 00:05:29;;;;;;;0.80;0.40;;;2.00;99.90;;;;;;5114278;28;20447;-59
2021/11/28 00:10:58;;;;;;;1.00;0.70;;;2.10;99.90;;;;;;5107787;28;20984;-59
2021/11/28 00:16:12;;;;;;;0.80;0.50;;;2.10;99.90;;;;;;5107241;28;20423;-58
2021/11/28 00:18:39;;;;;;;1.17;0.63;;;2.10;99.90;;;;;;5113298;28;20503;-57
2021/11/28 00:21:07;;;;;;;0.93;0.63;;;2.10;99.90;;;;;;5112098;28;20491;-57
2021/11/28 00:23:35;;;;;;;1.03;0.57;;;2.10;99.90;;;;;;5113464;28;20452;-56
2021/11/28 00:26:05;;;;;;;1.33;0.60;;;2.10;99.90;;;;;;5113500;28;20494;-55
2021/11/28 00:28:36;;;;;;;2.00;0.50;;;2.10;99.90;;;;;;5113095;28;20824;-56
2021/11/28 00:31:04;;;;;;;1.63;0.50;;;2.20;99.90;;;;;;5112901;28;20441;-56
2021/11/28 00:33:33;;;;;;;2.20;0.50;;;2.20;99.90;;;;;;5115596;28;20463;-57
2021/11/28 00:36:04;;;;;;;0.67;0.40;;;2.30;99.90;;;;;;5117701;28;20487;-58
2021/11/28 00:38:32;;;;;;;0.60;0.40;;;2.30;99.90;;;;;;5118567;28;20922;-58
2021/11/28 00:41:00;;;;;;;0.73;0.40;;;2.30;99.90;;;;;;5118682;28;20872;-57
2021/11/28 00:43:27;;;;;;;0.83;0.47;;;2.30;99.90;;;;;;5118285;28;20452;-56
2021/11/28 00:45:55;;;;;;;2.70;0.50;;;2.30;99.90;;;;;;5118058;28;20479;-57
2021/11/28 00:48:27;;;;;;;1.73;0.50;;;2.30;99.90;;;;;;5117742;28;20819;-57
2021/11/28 00:51:10;;;;;;;0.50;0.30;;;2.20;99.90;;;;;;5117141;28;20971;-56
2021/11/28 00:53:38;;;;;;;0.50;0.40;;;2.20;99.90;;;;;;5118510;28;20456;-54
2021/11/28 00:56:06;;;;;;;0.50;0.30;;;2.10;99.90;;;;;;5116436;28;20949;-57
2021/11/28 00:58:34;;;;;;;1.30;0.30;;;2.20;99.90;;;;;;5114551;28;20606;-59
2021/11/28 01:01:06;;;;;;;0.60;0.40;;;2.20;99.90;;;;;;5114994;28;20432;-56
2021/11/28 01:03:33;;;;;;;1.37;0.40;;;2.20;99.90;;;;;;5114532;28;20537;-57
2021/11/28 01:06:00;;;;;;;0.70;0.40;;;2.20;99.90;;;;;;5115570;28;20487;-58
2021/11/28 01:08:28;;;;;;;1.47;0.47;;;2.20;99.90;;;;;;5115115;28;20459;-57
2021/11/28 01:10:57;;;;;;;0.60;0.40;;;2.30;99.90;;;;;;5116105;28;20545;-58
2021/11/28 01:13:24;;;;;;;0.80;0.37;;;2.30;99.90;;;;;;5117248;28;20547;-59
2021/11/28 01:15:51;;;;;;;0.50;0.30;;;2.30;99.90;;;;;;5109280;28;20449;-56
2021/11/28 01:18:20;;;;;;;0.60;0.40;;;2.30;99.90;;;;;;5116942;28;20453;-57
2021/11/28 01:20:48;;;;;;;1.17;0.53;;;2.30;99.90;;;;;;5116311;28;20476;-59
2021/11/28 01:23:16;;;;;;;0.40;0.30;;;2.30;99.90;;;;;;5116924;28;20495;-58
2021/11/28 01:25:43;;;;;;;0.40;0.30;;;2.40;99.90;;;;;;5116524;28;20487;-59
2021/11/28 01:28:11;;;;;;;0.70;0.30;;;2.40;99.90;;;;;;5122703;27;20576;-57
2021/11/28 01:30:38;;;;;;;0.60;0.20;;;2.30;99.90;;;;;;5137957;27;21098;-57
2021/11/28 01:33:05;;;;;;;0.87;0.20;;;2.40;99.90;;;;;;5138003;27;20483;-58
2021/11/28 01:35:35;;;;;;;0.50;0.20;;;2.40;99.90;;;;;;5137443;27;20444;-56
2021/11/28 01:38:02;;;;;;;0.40;0.27;;;2.40;99.90;;;;;;5138000;27;20750;-58
2021/11/28 01:40:30;;;;;;;0.50;0.30;;;2.50;99.90;;;;;;5138304;27;20465;-58
2021/11/28 01:43:03;;;;;;;1.23;0.50;;;2.50;99.90;;;;;;5137296;27;20874;-58
2021/11/28 01:45:32;;;;;;;0.83;0.30;;;2.50;99.90;;;;;;5138118;27;20518;-58
2021/11/28 01:48:02;;;;;;;0.53;0.30;;;2.50;99.90;;;;;;5135758;27;20975;-58
2021/11/28 01:50:31;;;;;;;0.70;0.43;;;2.50;99.90;;;;;;5137125;27;20920;-58
2021/11/28 01:53:01;;;;;;;0.90;0.47;;;2.50;99.90;;;;;;5136812;27;20491;-58
2021/11/28 01:55:30;;;;;;;0.90;0.30;;;2.50;99.90;;;;;;5137205;27;20456;-59
2021/11/28 01:57:59;;;;;;;0.40;0.30;;;2.40;99.90;;;;;;5137266;27;20473;-58
2021/11/28 02:00:29;;;;;;;0.40;0.20;;;2.40;99.90;;;;;;5137464;27;20497;-57
2021/11/28 02:02:58;;;;;;;0.70;0.30;;;2.40;99.90;;;;;;5136294;27;20793;-58
2021/11/28 02:05:27;;;;;;;0.63;0.30;;;2.40;99.90;;;;;;5136995;27;20524;-58
2021/11/28 02:07:54;;;;;;;0.43;0.20;;;2.40;99.90;;;;;;5134035;27;20551;-58
2021/11/28 02:10:23;;;;;;;0.80;0.37;;;2.40;99.90;;;;;;5135101;27;20537;-59
2021/11/28 02:12:51;;;;;;;0.97;0.40;;;2.40;99.90;;;;;;5135585;27;20477;-57
2021/11/28 02:15:20;;;;;;;0.60;0.30;;;2.40;99.90;;;;;;5135727;27;20429;-58
2021/11/28 02:17:51;;;;;;;1.37;0.40;;;2.40;99.90;;;;;;5135797;27;20743;-59
2021/11/28 02:20:19;;;;;;;0.70;0.30;;;2.40;99.90;;;;;;5136790;27;20435;-58
2021/11/28 02:22:48;;;;;;;0.97;0.30;;;2.40;99.90;;;;;;5136406;27;20451;-58
2021/11/28 02:25:16;;;;;;;1.30;0.40;;;2.30;99.90;;;;;;5136475;27;20547;-58
2021/11/28 02:27:43;;;;;;;0.70;0.40;;;2.30;99.90;;;;;;5135057;27;20926;-58
2021/11/28 02:30:12;;;;;;;0.50;0.30;;;2.30;99.90;;;;;;5134678;27;20565;-57
2021/11/28 02:32:39;;;;;;;1.30;0.30;;;2.40;99.90;;;;;;5134628;27;20451;-57
2021/11/28 02:35:07;;;;;;;1.00;0.47;;;2.40;99.90;;;;;;5134777;27;20443;-57
2021/11/28 02:37:34;;;;;;;0.50;0.30;;;2.40;99.90;;;;;;5135401;27;20482;-58
2021/11/28 02:40:03;;;;;;;0.90;0.30;;;2.40;99.90;;;;;;5135009;27;20451;-58
2021/11/28 02:42:31;;;;;;;1.27;0.30;;;2.40;99.90;;;;;;5135771;27;20444;-58
2021/11/28 02:44:58;;;;;;;1.17;0.33;;;2.40;99.90;;;;;;5134883;27;20479;-59
2021/11/28 02:47:25;;;;;;;1.13;0.40;;;2.40;99.90;;;;;;5135703;27;20482;-57
2021/11/28 02:49:52;;;;;;;0.70;0.37;;;2.40;99.90;;;;;;5135919;27;20476;-60
2021/11/28 02:52:20;;;;;;;0.80;0.50;;;2.40;99.90;;;;;;5135908;27;20464;-60
2021/11/28 02:54:47;;;;;;;1.10;0.40;;;2.50;99.90;;;;;;5134269;27;20460;-59
2021/11/28 02:57:16;;;;;;;0.57;0.33;;;2.50;99.90;;;;;;5133844;27;20524;-59
2021/11/28 02:59:43;;;;;;;6.23;0.50;;;2.50;99.90;;;;;;5133504;27;20540;-59
2021/11/28 03:02:10;;;;;;;0.50;0.30;;;2.50;99.90;;;;;;5134509;27;20819;-59
2021/11/28 03:04:38;;;;;;;0.80;0.30;;;2.60;99.90;;;;;;5135192;27;20546;-59
2021/11/28 03:07:05;;;;;;;0.87;0.50;;;2.60;99.90;;;;;;5135152;27;20613;-59
2021/11/28 03:09:32;;;;;;;0.67;0.40;;;2.60;99.90;;;;;;5135608;27;20444;-59
2021/11/28 03:12:00;;;;;;;0.70;0.40;;;2.60;99.90;;;;;;5136052;27;20921;-59
2021/11/28 03:14:28;;;;;;;0.60;0.40;;;2.60;99.90;;;;;;5136582;27;20452;-59
2021/11/28 03:16:56;;;;;;;0.77;0.37;;;2.60;99.90;;;;;;5135804;27;20456;-59
2021/11/28 03:19:24;;;;;;;3.90;0.50;;;2.60;99.90;;;;;;5133822;27;20979;-59
2021/11/28 03:21:51;;;;;;;0.67;0.30;;;2.60;99.90;;;;;;5135482;27;20797;-59
2021/11/28 03:24:18;;;;;;;0.83;0.37;;;2.60;99.90;;;;;;5135384;27;20455;-59
2021/11/28 03:26:48;;;;;;;0.53;0.30;;;2.50;99.90;;;;;;5134514;27;20512;-59
2021/11/28 03:29:16;;;;;;;0.40;0.30;;;2.50;99.90;;;;;;5132764;28;20452;-60
2021/11/28 03:31:48;;;;;;;1.23;0.30;;;2.50;99.90;;;;;;5133192;28;20594;-59
2021/11/28 03:34:17;;;;;;;0.67;0.30;;;2.50;99.90;;;;;;5132952;28;20500;-59
2021/11/28 03:36:48;;;;;;;0.80;0.30;;;2.40;99.90;;;;;;5134205;28;20901;-59
2021/11/28 03:39:17;;;;;;;0.43;0.27;;;2.40;99.90;;;;;;5134754;28;20452;-59
2021/11/28 03:41:47;;;;;;;0.60;0.30;;;2.40;99.90;;;;;;5134437;28;20497;-59
2021/11/28 03:44:15;;;;;;;0.90;0.40;;;2.40;99.90;;;;;;5136538;28;20500;-59
2021/11/28 03:46:42;;;;;;;1.20;0.30;;;2.40;99.90;;;;;;5136675;28;20736;-59
2021/11/28 03:49:11;;;;;;;0.70;0.30;;;2.40;99.90;;;;;;5136282;28;20799;-59
2021/11/28 03:51:38;;;;;;;2.47;0.40;;;2.40;99.90;;;;;;5135451;28;20515;-59
2021/11/28 03:54:06;;;;;;;0.63;0.23;;;2.40;99.90;;;;;;5136040;28;20497;-59
2021/11/28 03:56:34;;;;;;;2.60;0.40;;;2.50;99.90;;;;;;5134649;28;20803;-59
2021/11/28 03:59:01;;;;;;;0.60;0.30;;;2.50;99.90;;;;;;5134774;28;20558;-58
2021/11/28 04:01:29;;;;;;;0.60;0.30;;;2.40;99.90;;;;;;5134305;28;20439;-58
2021/11/28 04:03:56;;;;;;;3.03;0.50;;;2.40;99.90;;;;;;5136417;28;20452;-57
2021/11/28 04:06:25;;;;;;;0.70;0.43;;;2.40;99.90;;;;;;5136845;28;20494;-58
2021/11/28 04:08:52;;;;;;;1.47;0.40;;;2.40;99.90;;;;;;5139011;27;20492;-59
2021/11/28 04:11:20;;;;;;;0.83;0.40;;;2.40;99.90;;;;;;5139684;27;20518;-59
2021/11/28 04:13:47;;;;;;;1.13;0.40;;;2.40;99.90;;;;;;5140241;27;20759;-59
2021/11/28 04:16:14;;;;;;;0.70;0.30;;;2.40;99.90;;;;;;5138721;27;20532;-59
2021/11/28 04:18:42;;;;;;;1.00;0.37;;;2.40;99.90;;;;;;5138538;27;20455;-58
2021/11/28 04:21:09;;;;;;;1.00;0.30;;;2.50;99.90;;;;;;5138781;27;20440;-58
2021/11/28 04:23:40;;;;;;;0.50;0.30;;;2.50;99.90;;;;;;5138834;27;20472;-58
2021/11/28 04:26:07;;;;;;;0.70;0.30;;;2.50;99.90;;;;;;5138402;27;20482;-59
2021/11/28 04:28:35;;;;;;;0.67;0.20;;;2.50;99.90;;;;;;5137005;27;20785;-58
2021/11/28 04:31:02;;;;;;;0.50;0.30;;;2.50;99.90;;;;;;5138525;27;20489;-59
2021/11/28 04:33:29;;;;;;;0.50;0.30;;;2.50;99.90;;;;;;5137878;27;20491;-59
2021/11/28 04:35:57;;;;;;;0.40;0.20;;;2.50;99.90;;;;;;5136944;27;20869;-59
2021/11/28 04:38:24;;;;;;;4.60;0.77;;;2.60;99.90;;;;;;5137734;27;20812;-59
2021/11/28 04:40:53;;;;;;;0.60;0.30;;;2.60;99.90;;;;;;5135989;27;21065;-59
2021/11/28 04:43:20;;;;;;;1.43;0.30;;;2.60;99.90;;;;;;5135618;27;20577;-59
2021/11/28 04:45:47;;;;;;;0.87;0.40;;;2.60;99.90;;;;;;5136648;27;20471;-58
2021/11/28 04:48:15;;;;;;;0.73;0.30;;;2.60;99.90;;;;;;5135551;27;20801;-58
2021/11/28 04:50:43;;;;;;;4.73;0.40;;;2.70;99.90;;;;;;5135819;27;20998;-59
2021/11/28 04:53:11;;;;;;;3.33;0.37;;;2.70;99.90;;;;;;5135709;27;20451;-58
2021/11/28 04:55:38;;;;;;;0.30;0.20;;;2.60;99.90;;;;;;5136783;27;20444;-58
2021/11/28 04:58:07;;;;;;;0.90;0.40;;;2.60;99.90;;;;;;5137307;27;20458;-59
2021/11/28 05:00:34;;;;;;;0.70;0.30;;;2.60;99.90;;;;;;5138703;27;20436;-59
2021/11/28 05:03:02;;;;;;;0.57;0.33;;;2.60;99.90;;;;;;5136923;27;20461;-59
2021/11/28 05:05:29;;;;;;;0.67;0.30;;;2.60;99.90;;;;;;5135359;27;20483;-59
2021/11/28 05:07:56;;;;;;;0.60;0.30;;;2.60;99.90;;;;;;5135199;27;20531;-59
2021/11/28 05:10:24;;;;;;;0.77;0.37;;;2.60;99.90;;;;;;5134853;27;20736;-59
2021/11/28 05:12:51;;;;;;;0.40;0.20;;;2.60;99.90;;;;;;5134650;27;20456;-58
2021/11/28 05:15:21;;;;;;;1.57;0.30;;;2.70;99.90;;;;;;5135134;27;20751;-58
2021/11/28 05:17:48;;;;;;;0.60;0.30;;;2.80;99.90;;;;;;5135901;27;20456;-59
2021/11/28 05:20:16;;;;;;;1.20;0.50;;;2.80;99.90;;;;;;5136882;27;20950;-59
2021/11/28 05:22:43;;;;;;;0.70;0.40;;;2.80;99.90;;;;;;5137588;27;20493;-59
2021/11/28 05:25:11;;;;;;;0.57;0.40;;;2.70;99.90;;;;;;5139021;27;20459;-58
2021/11/28 05:27:39;;;;;;;0.50;0.30;;;2.70;99.90;;;;;;5136819;27;20471;-59
2021/11/28 05:30:08;;;;;;;0.80;0.30;;;2.80;99.90;;;;;;5137719;27;20792;-57
2021/11/28 05:32:37;;;;;;;0.40;0.23;;;2.80;99.90;;;;;;5136494;27;20807;-59
2021/11/28 05:35:06;;;;;;;0.70;0.30;;;2.80;99.90;;;;;;5136727;27;20455;-59
2021/11/28 05:37:34;;;;;;;0.63;0.30;;;2.80;99.90;;;;;;5135859;27;20439;-59
2021/11/28 05:40:02;;;;;;;0.40;0.20;;;2.80;99.90;;;;;;5135896;27;20436;-59
2021/11/28 05:42:29;;;;;;;0.50;0.30;;;2.80;99.90;;;;;;5135727;27;20445;-59
2021/11/28 05:44:56;;;;;;;0.50;0.30;;;2.80;99.90;;;;;;5135950;27;20479;-59
2021/11/28 05:47:24;;;;;;;0.50;0.30;;;2.90;99.90;;;;;;5136280;27;20447;-63
2021/11/28 05:49:52;;;;;;;0.30;0.20;;;2.90;99.90;;;;;;5135720;27;20455;-59
2021/11/28 05:52:20;;;;;;;0.60;0.30;;;2.90;99.90;;;;;;5136259;27;20526;-59
2021/11/28 05:54:48;;;;;;;0.40;0.20;;;2.90;99.90;;;;;;5136371;27;20422;-59
2021/11/28 05:57:16;;;;;;;0.40;0.20;;;2.90;99.90;;;;;;5136386;27;20494;-60
2021/11/28 05:59:43;;;;;;;0.60;0.30;;;2.90;99.90;;;;;;5135540;27;20479;-59
2021/11/28 06:02:10;;;;;;;0.57;0.30;;;2.90;99.90;;;;;;5136013;27;20436;-59
2021/11/28 06:04:37;;;;;;;1.00;0.40;;;2.90;99.90;;;;;;5137271;27;20496;-59
2021/11/28 06:07:06;;;;;;;0.63;0.30;;;2.90;99.90;;;;;;5136913;27;20448;-59
2021/11/28 06:09:34;;;;;;;0.70;0.30;;;2.90;99.90;;;;;;5137824;27;20444;-60
2021/11/28 06:12:01;;;;;;;0.70;0.30;;;2.90;99.90;;;;;;5138082;27;20938;-60
2021/11/28 06:14:28;;;;;;;0.53;0.30;;;2.80;99.90;;;;;;5138019;27;20501;-59
2021/11/28 06:16:56;;;;;;;0.80;0.30;;;2.80;99.90;;;;;;5138353;27;20419;-59
2021/11/28 06:19:23;;;;;;;0.77;0.30;;;2.80;99.90;;;;;;5137824;27;20613;-59
2021/11/28 06:21:50;;;;;;;0.43;0.30;;;2.80;99.90;;;;;;5137563;27;20868;-58
2021/11/28 06:24:19;;;;;;;0.50;0.30;;;2.80;99.90;;;;;;5137887;27;20788;-58
2021/11/28 06:26:46;;;;;;;0.40;0.30;;;2.80;99.90;;;;;;5137938;27;20795;-58
2021/11/28 06:29:14;;;;;;;0.70;0.30;;;2.90;99.90;;;;;;5136811;27;20510;-59
2021/11/28 06:31:42;;;;;;;0.40;0.30;;;2.90;99.90;;;;;;5136974;27;20457;-58
2021/11/28 06:34:09;;;;;;;0.50;0.27;;;2.90;99.90;;;;;;5137977;27;20451;-58
2021/11/28 06:36:36;;;;;;;1.47;0.30;;;2.80;99.90;;;;;;5137099;27;20491;-59
2021/11/28 06:39:04;;;;;;;1.47;0.30;;;2.80;99.90;;;;;;5137230;27;20807;-59
2021/11/28 06:41:33;;;;;;;3.23;0.40;;;2.70;99.90;;;;;;5137414;27;20473;-58
2021/11/28 06:44:00;;;;;;;0.50;0.27;;;2.70;99.90;;;;;;5137493;27;20473;-59
2021/11/28 06:46:27;;;;;;;0.57;0.30;;;2.70;99.90;;;;;;5135664;27;20926;-58
2021/11/28 06:48:54;;;;;;;0.70;0.30;;;2.70;99.90;;;;;;5134583;27;20439;-59
2021/11/28 06:51:22;;;;;;;0.60;0.30;;;2.80;99.90;;;;;;5136069;27;20483;-59
2021/11/28 06:53:49;;;;;;;0.40;0.30;;;2.80;99.90;;;;;;5136195;27;20414;-58
2021/11/28 06:56:17;;;;;;;0.47;0.27;;;2.80;99.90;;;;;;5136026;27;20874;-60
2021/11/28 06:58:45;;;;;;;1.20;0.40;;;2.90;99.90;;;;;;5135533;27;20448;-60
2021/11/28 07:01:13;;;;;;;0.80;0.27;;;2.90;99.90;;;;;;5135954;27;20485;-59
2021/11/28 07:03:40;;;;;;;0.40;0.27;;;2.90;99.90;;;;;;5136142;27;20725;-59
2021/11/28 07:06:08;;;;;;;0.47;0.20;;;2.90;99.90;;;;;;5135995;27;20520;-59
2021/11/28 07:08:35;;;;;;;1.50;0.40;;;2.90;99.90;;;;;;5134892;27;20479;-60
2021/11/28 07:11:02;;;;;;;0.80;0.40;;;2.80;99.90;;;;;;5135226;27;20489;-59
2021/11/28 07:13:30;;;;;;;0.40;0.20;;;2.80;99.90;;;;;;5135810;27;20497;-59
2021/11/28 07:15:58;;;;;;;0.50;0.30;;;2.80;99.90;;;;;;5135028;27;20430;-60
2021/11/28 07:18:26;;;;;;;0.50;0.30;;;2.80;99.90;;;;;;5134825;27;20443;-60
2021/11/28 07:20:53;;;;;;;0.50;0.20;;;2.80;99.90;;;;;;5135922;27;20833;-60
2021/11/28 07:23:20;;;;;;;1.00;0.40;;;2.80;99.90;;;;;;5136819;27;20473;-59
2021/11/28 07:25:49;;;;;;;0.50;0.30;;;2.80;99.90;;;;;;5136738;27;20693;-59
2021/11/28 07:28:16;;;;;;;0.83;0.30;;;2.80;99.90;;;;;;5135993;27;20475;-60
2021/11/28 07:30:49;;;;;;;1.30;0.40;;;2.70;99.90;;;;;;5135332;28;20558;-59
2021/11/28 07:33:18;;;;;;;0.60;0.30;;;2.70;99.90;;;;;;5136543;28;20406;-59
2021/11/28 07:35:45;;;;;;;0.70;0.40;;;2.70;99.90;;;;;;5136220;28;20516;-60
2021/11/28 07:38:12;;;;;;;0.50;0.30;;;2.70;99.90;;;;;;5136271;28;20742;-60
2021/11/28 07:40:40;;;;;;;0.60;0.30;;;2.70;99.90;;;;;;5136076;28;20463;-60
2021/11/28 07:43:07;;;;;;;0.67;0.30;;;2.70;99.90;;;;;;5139536;27;20410;-60
2021/11/28 07:45:36;;;;;;;0.40;0.20;;;2.70;99.90;;;;;;5140927;27;20451;-60
2021/11/28 07:48:03;;;;;;;0.40;0.20;;;2.70;99.90;;;;;;5140577;27;20444;-60
2021/11/28 07:50:32;;;;;;;0.83;0.30;;;2.60;99.90;;;;;;5140676;27;20777;-60
2021/11/28 07:52:59;;;;;;;0.47;0.30;;;2.60;99.90;;;;;;5140399;27;20853;-61
2021/11/28 07:55:27;;;;;;;0.33;0.20;;;2.60;99.90;;;;;;5140402;27;20806;-61
2021/11/28 07:57:54;;;;;;;0.70;0.40;;;2.60;99.90;;;;;;5140502;27;20767;-60
2021/11/28 08:00:21;;;;;;;0.60;0.33;;;2.60;99.90;;;;;;5140228;27;20508;-60
2021/11/28 08:02:49;;;;;;;0.80;0.40;;;2.60;99.90;;;;;;5140802;27;20447;-61
2021/11/28 08:05:16;;;;;;;1.87;0.40;;;2.70;99.90;;;;;;5140306;27;20490;-61
2021/11/28 08:07:45;;;;;;;1.33;0.23;;;2.70;99.90;;;;;;5139806;27;20451;-60
2021/11/28 08:10:13;;;;;;;0.63;0.40;;;2.70;99.90;;;;;;5140243;27;20513;-60
2021/11/28 08:12:40;;;;;;;0.67;0.30;;;2.80;99.90;;;;;;5140303;27;20483;-60
2021/11/28 08:15:15;;;;;;;0.50;0.30;;;2.80;99.90;;;;;;5139950;27;20508;-60
2021/11/28 08:17:43;;;;;;;0.70;0.30;;;2.90;99.90;;;;;;5140283;27;20443;-60
2021/11/28 08:20:11;;;;;;;0.47;0.30;;;2.90;99.90;;;;;;5140123;27;20463;-60
2021/11/28 08:22:38;;;;;;;0.63;0.40;;;2.90;99.90;;;;;;5139714;27;20880;-60
2021/11/28 08:25:11;;;;;;;0.70;0.40;;;2.80;99.90;;;;;;5139447;27;20816;-60
2021/11/28 08:27:38;;;;;;;1.90;0.47;;;2.80;99.90;;;;;;5139448;27;20529;-60
2021/11/28 08:30:13;;;;;;;0.57;0.37;;;2.80;99.90;;;;;;5140134;27;20545;-60
2021/11/28 08:32:42;;;;;;;0.50;0.40;;;2.80;99.90;;;;;;5139548;27;20562;-60
2021/11/28 08:35:10;;;;;;;0.90;0.30;;;2.90;99.90;;;;;;5139206;27;20512;-60
2021/11/28 08:37:37;;;;;;;0.90;0.40;;;2.90;99.90;;;;;;5138693;27;20732;-61
2021/11/28 08:40:13;;;;;;;0.50;0.33;;;2.90;99.90;;;;;;5139318;27;20932;-60
2021/11/28 08:42:40;;;;;;;0.90;0.40;;;2.90;99.90;;;;;;5138585;27;20443;-59
2021/11/28 08:45:10;;;;;;;0.53;0.30;;;3.00;99.90;;;;;;5138142;27;20963;-59
2021/11/28 08:47:38;;;;;;;0.60;0.50;;;3.00;99.90;;;;;;5136720;27;20513;-60
2021/11/28 08:50:11;;;;;;;0.53;0.33;;;3.10;99.90;;;;;;5135131;27;20494;-59
2021/11/28 08:52:39;;;;;;;1.10;0.50;;;3.20;99.90;;;;;;5135045;27;20544;-59
2021/11/28 08:55:09;;;;;;;0.50;0.30;;;3.20;99.90;;;;;;5134929;27;20544;-59
2021/11/28 08:57:38;;;;;;;0.57;0.20;;;3.20;99.90;;;;;;5133058;27;20440;-59
2021/11/28 09:00:07;;;;;;;0.90;0.50;;;3.20;99.90;;;;;;5122498;27;20456;-60
2021/11/28 09:02:35;;;;;;;0.50;0.30;;;3.20;99.90;;;;;;5114434;28;20547;-60
2021/11/28 09:05:02;;;;;;;0.63;0.33;;;3.20;99.90;;;;;;5115468;28;21167;-59
2021/11/28 09:07:30;;;;;;;1.13;0.40;;;3.30;99.90;;;;;;5116099;28;20555;-59
2021/11/28 09:09:57;;;;;;;0.63;0.37;;;3.20;99.90;;;;;;5116189;28;20427;-59
2021/11/28 09:12:25;;;;;;;1.30;0.47;;;3.20;99.90;;;;;;5123519;27;20991;-59
2021/11/28 09:14:54;;;;;;;6.13;0.60;;;3.20;99.90;;;;;;5138557;27;20943;-59
2021/11/28 09:17:21;;;;;;;0.70;0.43;;;3.20;99.90;;;;;;5139008;27;20534;-58
2021/11/28 09:19:54;;;;;;;2.93;0.57;;;3.20;99.90;;;;;;5138383;27;20456;-59
2021/11/28 09:22:34;;;;;;;0.50;0.30;;;3.30;99.90;;;;;;5138482;27;20440;-59
2021/11/28 09:25:00;;;;;;;0.50;0.30;;;3.30;99.90;;;;;;5138124;27;20430;-59
2021/11/28 09:27:29;;;;;;;0.73;0.40;;;3.40;99.90;;;;;;5138384;27;20484;-58
2021/11/28 09:29:58;;;;;;;0.87;0.40;;;3.50;99.90;;;;;;5136806;27;20463;-59
2021/11/28 09:32:25;;;;;;;0.67;0.43;;;3.50;99.90;;;;;;5136502;27;20458;-59
2021/11/28 09:34:53;;;;;;;1.30;0.40;;;3.60;99.90;;;;;;5137635;27;20434;-59
2021/11/28 09:37:20;;;;;;;0.83;0.40;;;3.60;99.90;;;;;;5136783;27;20797;-59
2021/11/28 09:39:47;;;;;;;1.27;0.40;;;3.60;99.90;;;;;;5136466;27;20546;-59
2021/11/28 09:42:22;;;;;;;0.67;0.40;;;3.70;99.90;;;;;;5136461;27;20471;-58
2021/11/28 09:44:49;;;;;;;1.07;0.60;;;3.80;99.90;;;;;;5136767;27;20872;-60
2021/11/28 09:47:19;;;;;;;1.50;0.87;;;3.70;99.90;;;;;;5135424;27;20426;-59
2021/11/28 09:49:46;;;;;;;2.00;0.60;;;3.80;99.90;;;;;;5134292;27;20491;-58
2021/11/28 09:52:19;;;;;;;1.10;0.40;;;3.80;99.90;;;;;;5134874;27;20776;-59
2021/11/28 09:54:47;;;;;;;1.17;0.50;;;3.90;99.90;;;;;;5135865;27;20638;-58
2021/11/28 09:57:16;;;;;;;1.00;0.57;;;3.80;99.90;;;;;;5135834;27;20418;-58
2021/11/28 09:59:46;;;;;;;1.90;0.40;;;3.90;99.90;;;;;;5136437;27;20827;-59
2021/11/28 10:02:20;;;;;;;0.70;0.40;;;4.10;99.90;;;;;;5135548;27;20444;-60
2021/11/28 10:04:48;;;;;;;6.40;0.50;;;4.10;99.90;;;;;;5135889;27;20456;-59
2021/11/28 10:07:16;;;;;;;0.70;0.47;;;4.10;99.90;;;;;;5134121;27;20501;-57
2021/11/28 10:09:46;;;;;;;1.93;0.40;;;4.20;99.90;;;;;;5135738;27;20434;-57
2021/11/28 10:12:20;;;;;;;1.93;0.50;;;4.10;99.90;;;;;;5134983;27;20856;-57
2021/11/28 10:14:49;;;;;;;0.83;0.50;;;4.10;99.90;;;;;;5133145;27;20479;-59
2021/11/28 10:17:20;;;;;;;1.23;0.40;;;4.20;99.90;;;;;;5133614;27;20763;-58
2021/11/28 10:19:48;;;;;;;1.20;0.40;;;4.20;99.90;;;;;;5133703;27;20486;-58
2021/11/28 10:22:18;;;;;;;1.17;0.40;;;4.30;99.90;;;;;;5134528;27;20435;-58
2021/11/28 10:24:56;;;;;;;2.70;0.50;;;4.50;99.90;;;;;;5134964;27;20479;-58
2021/11/28 10:27:34;;;;;;;2.13;0.30;;;4.50;99.90;;;;;;5134928;27;20906;-58
2021/11/28 10:30:01;;;;;;;0.83;0.40;;;4.50;99.90;;;;;;5136084;27;20531;-58
2021/11/28 10:32:30;;;;;;;1.20;0.40;;;4.50;99.90;;;;;;5136174;27;20480;-57
2021/11/28 10:34:57;;;;;;;0.77;0.40;;;4.50;99.90;;;;;;5135412;27;20448;-58
2021/11/28 10:37:25;;;;;;;2.77;0.33;;;4.40;99.90;;;;;;5121137;27;20416;-58
2021/11/28 10:39:54;;;;;;;0.43;0.33;;;4.40;99.90;;;;;;5131212;27;20414;-59
2021/11/28 10:42:24;;;;;;;0.60;0.40;;;4.40;99.90;;;;;;5134823;27;20414;-58
2021/11/28 10:45:05;;;;;;;0.40;0.20;;;4.40;99.90;;;;;;5132539;27;20422;-59
2021/11/28 10:47:45;;;;;;;0.50;0.30;;;4.30;99.90;;;;;;5134101;27;20425;-59
2021/11/28 10:50:19;;;;;;;0.57;0.30;;;4.30;99.90;;;;;;5132368;27;20447;-58
2021/11/28 10:52:50;;;;;;;1.73;0.30;;;4.30;99.90;;;;;;5134264;27;20502;-59
2021/11/28 10:55:28;;;;;;;0.40;0.20;;;4.40;99.90;;;;;;5134679;27;20426;-58
2021/11/28 10:58:06;;;;;;;0.37;0.20;;;4.50;99.90;;;;;;5124827;27;20530;-59
2021/11/28 11:00:35;;;;;;;0.80;0.30;;;4.50;99.90;;;;;;5134065;27;20448;-61
2021/11/28 11:03:15;;;;;;;2.47;0.47;;;4.50;99.90;;;;;;5131135;27;20935;-58
2021/11/28 11:05:44;;;;;;;0.47;0.27;;;4.50;99.90;;;;;;5133949;27;20468;-59
2021/11/28 11:08:15;;;;;;;0.50;0.30;;;4.50;99.90;;;;;;5134150;27;20422;-58
2021/11/28 11:10:43;;;;;;;1.00;0.30;;;4.50;99.90;;;;;;5133235;27;20970;-59
2021/11/28 11:13:13;;;;;;;2.10;0.30;;;4.60;99.90;;;;;;5133795;27;20892;-60
2021/11/28 11:15:44;;;;;;;0.50;0.20;;;4.60;99.90;;;;;;5134766;27;20455;-58
2021/11/28 11:18:16;;;;;;;0.30;0.20;;;4.60;99.90;;;;;;5133832;27;20439;-58
2021/11/28 11:20:49;;;;;;;0.60;0.30;;;4.50;99.90;;;;;;5134301;27;20463;-58
2021/11/28 11:23:42;;;;;;;0.50;0.30;;;4.50;99.90;;;;;;5133251;27;20444;-58
2021/11/28 11:26:19;;;;;;;0.77;0.30;;;4.40;99.90;;;;;;5107559;27;20460;-58
2021/11/28 11:29:07;;;;;;;0.67;0.20;;;4.50;99.90;;;;;;5133355;27;20499;-59
2021/11/28 11:31:35;;;;;;;0.53;0.30;;;4.60;99.90;;;;;;5133564;28;20452;-58
2021/11/28 11:34:22;;;;;;;0.47;0.30;;;4.60;99.90;;;;;;5132121;28;20574;-59
2021/11/28 11:36:55;;;;;;;0.47;0.20;;;4.70;99.90;;;;;;5134282;28;20444;-58
2021/11/28 11:39:24;;;;;;;0.50;0.27;;;4.80;99.90;;;;;;5134452;28;20740;-59
2021/11/28 11:41:52;;;;;;;0.37;0.23;;;4.90;99.90;;;;;;5125253;28;20437;-59
2021/11/28 11:44:20;;;;;;;0.90;0.40;;;4.90;99.90;;;;;;5132343;28;20500;-59
2021/11/28 11:46:48;;;;;;;0.63;0.30;;;4.70;99.90;;;;;;5132345;28;20456;-58
2021/11/28 11:49:18;;;;;;;0.40;0.20;;;4.70;99.90;;;;;;5132909;28;20444;-59
2021/11/28 11:51:47;;;;;;;0.50;0.20;;;4.60;99.90;;;;;;5133795;28;20912;-59
2021/11/28 11:54:20;;;;;;;0.50;0.20;;;4.60;99.90;;;;;;5133294;28;20482;-58
2021/11/28 11:56:49;;;;;;;0.50;0.27;;;4.70;99.90;;;;;;5133310;28;20463;-61
2021/11/28 11:59:25;;;;;;;0.40;0.20;;;4.80;99.90;;;;;;5133589;28;20439;-58
2021/11/28 12:02:02;;;;;;;0.50;0.30;;;4.90;99.90;;;;;;5132482;28;20728;-58
2021/11/28 12:04:39;;;;;;;0.40;0.20;;;5.00;99.90;;;;;;5132556;28;20504;-60
2021/11/28 12:07:10;;;;;;;0.57;0.30;;;5.00;99.90;;;;;;5133488;28;20444;-59
2021/11/28 12:09:41;;;;;;;0.40;0.20;;;5.10;99.90;;;;;;5134452;28;20444;-60
2021/11/28 12:12:10;;;;;;;0.70;0.30;;;4.90;99.90;;;;;;5133992;28;20452;-57
2021/11/28 12:14:38;;;;;;;0.37;0.20;;;4.90;99.90;;;;;;5133078;28;20487;-60
2021/11/28 12:17:37;;;;;;;0.33;0.20;;;4.80;99.90;;;;;;5134681;28;20520;-60
2021/11/28 12:20:14;;;;;;;0.97;0.20;;;4.90;99.90;;;;;;5134232;28;20455;-61
2021/11/28 12:22:49;;;;;;;0.90;0.30;;;5.10;99.90;;;;;;5132771;28;20823;-59
2021/11/28 12:25:39;;;;;;;0.50;0.20;;;5.10;99.90;;;;;;5133092;28;20494;-59
2021/11/28 12:28:26;;;;;;;0.30;0.20;;;5.40;99.90;;;;;;5134129;27;20490;-59
2021/11/28 12:30:56;;;;;;;1.30;0.40;;;5.90;99.90;;;;;;5138670;27;20443;-59
2021/11/28 12:33:56;;;;;;;0.30;0.20;;;6.10;99.90;;;;;;5138938;27;20941;-59
2021/11/28 12:36:56;;;;;;;0.47;0.20;;;6.00;99.90;;;;;;5137376;27;20452;-59
2021/11/28 12:39:39;;;;;;;0.63;0.30;;;5.80;99.90;;;;;;5136488;27;20464;-58
2021/11/28 12:42:09;;;;;;;0.67;0.30;;;5.40;99.90;;;;;;5135375;27;20609;-59
2021/11/28 12:44:56;;;;;;;1.23;0.40;;;5.00;99.90;;;;;;5131871;27;20882;-58
2021/11/28 12:47:25;;;;;;;0.60;0.30;;;4.90;99.90;;;;;;5132638;27;20462;-59
2021/11/28 12:49:56;;;;;;;0.50;0.30;;;4.80;99.90;;;;;;5133557;27;20576;-60
2021/11/28 12:52:39;;;;;;;1.07;0.50;;;4.70;99.90;;;;;;5133638;27;20455;-59
2021/11/28 12:55:32;;;;;;;0.90;0.40;;;4.70;99.90;;;;;;5137059;27;20459;-60
2021/11/28 12:58:08;;;;;;;1.10;0.70;;;4.70;99.90;;;;;;5133094;27;20451;-60
2021/11/28 13:00:38;;;;;;;2.10;0.50;;;4.70;99.90;;;;;;5134625;27;20965;-60
2021/11/28 13:03:24;;;;;;;1.37;0.73;;;4.80;99.90;;;;;;5134240;27;20432;-60
2021/11/28 13:05:53;;;;;;;0.77;0.60;;;4.70;99.90;;;;;;5132672;27;20875;-59
2021/11/28 13:08:35;;;;;;;0.87;0.60;;;4.60;99.90;;;;;;5134347;27;20540;-60
2021/11/28 13:11:15;;;;;;;1.20;0.63;;;4.60;99.90;;;;;;5134079;27;20562;-60
2021/11/28 13:13:46;;;;;;;0.80;0.60;;;4.70;99.90;;;;;;5133386;27;20930;-60
2021/11/28 13:16:16;;;;;;;1.40;0.80;;;4.60;99.90;;;;;;5133507;27;20725;-59